Time;durP1;ratioP1;P1;durP2;ratioP2;P2;SDS_P1;SDS_P2;PMS_P1;PMS_P2;Temp;Humidity;BMP_temperature;BMP_pressure;BME280_temperature;BME280_humidity;BME280_pressure;Samples;Min_cycle;Max_cycle;Signal;HPM_P1;HPM_P2
2022/11/18 00:00:54;;;;;;;35.20;21.15;;;2.30;99.90;;;;;;6165876;23;20176;-88
2022/11/18 00:03:23;;;;;;;35.22;19.83;;;2.30;99.90;;;;;;6166672;23;20183;-88
2022/11/18 00:05:54;;;;;;;31.90;18.52;;;2.30;99.90;;;;;;6167114;23;20203;-88
2022/11/18 00:08:21;;;;;;;29.40;17.83;;;2.50;99.90;;;;;;6167168;23;20187;-88
2022/11/18 00:10:48;;;;;;;33.90;19.15;;;2.40;99.90;;;;;;6177579;23;20200;-88
2022/11/18 00:16:03;;;;;;;36.22;18.83;;;2.30;99.90;;;;;;6182822;23;20152;-88
2022/11/18 00:18:32;;;;;;;33.05;19.42;;;2.30;99.90;;;;;;6182800;23;20188;-84
2022/11/18 00:21:01;;;;;;;38.63;21.65;;;2.60;99.90;;;;;;6183964;23;20168;-86
2022/11/18 00:23:28;;;;;;;31.13;19.17;;;2.40;99.90;;;;;;6183077;23;20200;-88
2022/11/18 00:25:55;;;;;;;31.20;18.40;;;2.30;99.90;;;;;;6182433;23;20168;-85
2022/11/18 00:28:22;;;;;;;36.03;19.90;;;2.70;99.90;;;;;;6182310;23;20231;-87
2022/11/18 00:30:49;;;;;;;35.13;19.50;;;2.30;99.90;;;;;;6172700;23;20211;-87
2022/11/18 00:33:15;;;;;;;33.33;18.98;;;2.30;99.90;;;;;;6167262;23;20232;-90
2022/11/18 00:35:44;;;;;;;33.63;19.00;;;2.20;99.90;;;;;;6168421;23;20263;-89
2022/11/18 00:38:10;;;;;;;30.23;18.20;;;2.10;99.90;;;;;;6169635;23;20181;-87
2022/11/18 00:40:37;;;;;;;34.92;20.40;;;2.30;99.90;;;;;;6168936;23;20259;-87
2022/11/18 00:43:03;;;;;;;36.40;19.45;;;2.30;99.90;;;;;;6168642;23;20223;-87
2022/11/18 00:45:30;;;;;;;38.90;22.90;;;;;;;;;;6167506;23;20176;-89
2022/11/18 00:47:57;;;;;;;32.00;18.98;;;2.10;99.90;;;;;;6169154;23;20180;-88
2022/11/18 00:50:24;;;;;;;30.60;19.00;;;2.60;99.90;;;;;;6171209;23;20200;-88
2022/11/18 00:52:52;;;;;;;26.58;18.63;;;2.50;99.90;;;;;;6176237;23;20200;-88
2022/11/18 00:55:19;;;;;;;33.15;19.73;;;2.00;1.00;;;;;;6173725;23;20180;-88
2022/11/18 00:57:46;;;;;;;33.50;18.90;;;2.30;1.00;;;;;;6175278;23;20180;-87
2022/11/18 01:00:14;;;;;;;31.27;18.52;;;2.20;1.00;;;;;;6175958;23;20211;-89
2022/11/18 01:02:47;;;;;;;27.17;18.73;;;2.30;1.00;;;;;;6170645;23;20209;-89
2022/11/18 01:05:14;;;;;;;31.00;19.95;;;2.50;1.00;;;;;;6170667;23;20192;-89
2022/11/18 01:07:41;;;;;;;28.05;18.08;;;2.30;1.00;;;;;;6168885;23;20188;-88
2022/11/18 01:10:12;;;;;;;29.45;18.50;;;2.60;1.00;;;;;;6172978;23;20225;-88
2022/11/18 01:15:23;;;;;;;28.20;18.27;;;2.30;1.00;;;;;;6166660;23;20175;-87
2022/11/18 01:17:49;;;;;;;27.75;17.40;;;2.30;99.90;;;;;;6166088;23;20231;-87
2022/11/18 01:20:16;;;;;;;26.52;16.92;;;1.70;1.00;;;;;;6166898;23;20252;-87
2022/11/18 01:22:43;;;;;;;26.85;17.90;;;2.90;99.90;;;;;;6166720;23;20220;-88
2022/11/18 01:25:12;;;;;;;28.45;18.02;;;2.20;99.90;;;;;;6167534;23;20209;-86
2022/11/18 01:27:39;;;;;;;25.13;16.20;;;2.10;99.90;;;;;;6169529;23;20208;-88
2022/11/18 01:30:07;;;;;;;27.20;17.00;;;2.40;99.90;;;;;;6169216;23;20183;-87
2022/11/18 01:32:34;;;;;;;25.63;17.35;;;2.10;1.00;;;;;;6167951;23;20224;-88
2022/11/18 01:35:01;;;;;;;27.85;16.98;;;1.90;1.00;;;;;;6171198;23;20181;-88
2022/11/18 01:37:28;;;;;;;27.15;17.80;;;2.00;1.00;;;;;;6166991;23;20256;-88
2022/11/18 01:39:59;;;;;;;27.67;17.33;;;2.10;1.00;;;;;;6167987;23;20240;-87
2022/11/18 01:42:32;;;;;;;27.40;17.80;;;2.00;39.30;;;;;;6167642;23;20231;-87
2022/11/18 01:45:13;;;;;;;25.38;16.58;;;2.00;99.90;;;;;;6169416;23;20267;-89
2022/11/18 01:47:47;;;;;;;25.38;16.17;;;2.00;99.90;;;;;;6168145;23;20164;-87
2022/11/18 01:50:21;;;;;;;25.05;17.85;;;1.90;1.00;;;;;;6170734;23;20630;-89
2022/11/18 01:52:56;;;;;;;25.25;15.82;;;1.70;1.00;;;;;;6177648;23;20205;-89
2022/11/18 01:55:31;;;;;;;22.50;15.35;;;2.00;1.00;;;;;;6169067;23;20176;-88
2022/11/18 01:58:11;;;;;;;24.55;16.42;;;1.90;99.90;;;;;;6164937;23;20167;-88
2022/11/18 02:00:43;;;;;;;23.85;16.35;;;1.50;1.00;;;;;;6169556;23;20181;-89
2022/11/18 02:03:16;;;;;;;24.42;17.20;;;1.80;28.20;;;;;;6174599;23;20223;-88
2022/11/18 02:05:49;;;;;;;23.65;17.05;;;1.90;99.90;;;;;;6169471;23;20169;-88
2022/11/18 02:08:23;;;;;;;24.08;16.10;;;1.90;99.90;;;;;;6170353;23;20235;-87
2022/11/18 02:10:54;;;;;;;27.35;17.95;;;1.60;1.00;;;;;;6171326;23;20172;-89
2022/11/18 02:13:31;;;;;;;33.17;16.83;;;2.10;1.00;;;;;;6173807;23;20189;-88
2022/11/18 02:16:09;;;;;;;22.77;15.20;;;1.90;99.90;;;;;;6167031;23;20161;-89
2022/11/18 02:18:51;;;;;;;24.00;16.75;;;1.60;1.00;;;;;;6161037;23;20199;-89
2022/11/18 02:21:30;;;;;;;24.58;16.17;;;1.60;1.00;;;;;;6181896;23;20203;-86
2022/11/18 02:24:19;;;;;;;21.85;14.77;;;1.80;99.90;;;;;;6184289;23;20149;-89
2022/11/18 02:27:22;;;;;;;26.40;16.42;;;1.70;1.00;;;;;;6181368;23;20192;-87
2022/11/18 02:29:55;;;;;;;29.40;17.58;;;1.70;99.90;;;;;;6179585;23;20185;-88
2022/11/18 02:32:31;;;;;;;25.55;16.70;;;1.70;99.90;;;;;;6174309;23;20203;-87
2022/11/18 02:35:08;;;;;;;30.20;16.65;;;1.60;1.00;;;;;;6165668;23;20164;-88
2022/11/18 02:37:45;;;;;;;30.27;16.92;;;1.60;99.90;;;;;;6168499;23;20192;-87
2022/11/18 02:40:23;;;;;;;28.27;17.25;;;1.70;99.90;;;;;;6170132;23;20161;-89
2022/11/18 02:42:56;;;;;;;28.42;16.42;;;1.80;99.90;;;;;;6164662;23;20211;-89
2022/11/18 02:45:35;;;;;;;28.50;17.92;;;1.80;99.90;;;;;;6164227;23;20191;-87
2022/11/18 02:48:11;;;;;;;21.77;14.95;;;1.40;1.00;;;;;;6163823;23;20168;-89
2022/11/18 02:50:46;;;;;;;22.40;15.32;;;1.70;99.90;;;;;;6164205;23;20169;-88
2022/11/18 02:53:21;;;;;;;27.85;16.30;;;1.70;15.80;;;;;;6163958;23;20271;-88
2022/11/18 02:55:54;;;;;;;28.88;18.20;;;1.90;1.00;;;;;;6166722;23;20180;-86
2022/11/18 02:58:28;;;;;;;23.27;15.45;;;1.50;99.90;;;;;;6159792;23;20216;-87
2022/11/18 03:01:03;;;;;;;31.27;18.00;;;1.40;99.90;;;;;;6161679;23;20169;-86
2022/11/18 03:03:36;;;;;;;26.88;17.48;;;1.50;1.00;;;;;;6161968;23;20184;-87
2022/11/18 03:06:16;;;;;;;26.55;16.63;;;1.90;1.00;;;;;;6162077;23;20162;-87
2022/11/18 03:08:52;;;;;;;25.15;15.60;;;1.70;1.80;;;;;;6163813;23;20179;-87
2022/11/18 03:11:25;;;;;;;26.25;16.92;;;1.60;99.90;;;;;;6162586;23;20599;-87
2022/11/18 03:14:11;;;;;;;26.92;17.35;;;1.80;1.00;;;;;;6165799;23;20161;-86
2022/11/18 03:16:55;;;;;;;24.55;16.83;;;1.60;1.00;;;;;;6164264;23;20180;-87
2022/11/18 03:19:36;;;;;;;25.17;17.77;;;1.60;1.00;;;;;;6162361;23;20168;-88
2022/11/18 03:22:14;;;;;;;30.20;15.95;;;1.60;99.90;;;;;;6164261;23;20287;-89
2022/11/18 03:24:54;;;;;;;27.33;16.85;;;1.40;99.90;;;;;;6165010;23;20239;-87
2022/11/18 03:27:31;;;;;;;24.60;17.55;;;1.50;1.00;;;;;;6178978;23;20165;-87
2022/11/18 03:30:08;;;;;;;29.38;18.38;;;1.50;99.90;;;;;;6178581;23;20171;-88
2022/11/18 03:32:45;;;;;;;25.60;16.50;;;1.50;1.00;;;;;;6169322;23;20228;-86
2022/11/18 03:35:23;;;;;;;34.00;19.17;;;1.40;39.70;;;;;;6163704;23;20531;-87
2022/11/18 03:37:52;;;;;;;29.00;18.45;;;1.40;1.00;;;;;;6160669;23;20161;-88
2022/11/18 03:40:26;;;;;;;32.45;19.27;;;1.40;49.30;;;;;;6162838;23;20208;-87
2022/11/18 03:43:02;;;;;;;29.20;17.77;;;1.30;1.00;;;;;;6164749;23;20199;-87
2022/11/18 03:45:38;;;;;;;30.08;18.33;;;1.30;1.00;;;;;;6163444;23;20223;-88
2022/11/18 03:48:16;;;;;;;27.55;19.45;;;1.00;20.10;;;;;;6170258;23;20169;-87
2022/11/18 03:50:48;;;;;;;28.90;19.95;;;1.20;1.00;;;;;;6179586;23;20145;-89
2022/11/18 03:53:17;;;;;;;30.70;19.90;;;1.30;44.00;;;;;;6183963;23;20161;-88
2022/11/18 03:55:54;;;;;;;32.95;19.48;;;0.90;45.60;;;;;;6183823;23;20188;-87
2022/11/18 03:58:31;;;;;;;30.40;19.70;;;1.40;99.90;;;;;;6183505;23;20159;-87
2022/11/18 04:01:06;;;;;;;30.90;19.15;;;1.50;1.00;;;;;;6183320;23;20144;-85
2022/11/18 04:03:42;;;;;;;32.28;20.23;;;1.30;1.00;;;;;;6182342;23;20172;-88
2022/11/18 04:06:16;;;;;;;25.50;17.73;;;1.20;99.90;;;;;;6182082;23;20192;-88
2022/11/18 04:08:45;;;;;;;30.27;19.05;;;1.10;99.90;;;;;;6177831;23;20171;-88
2022/11/18 04:14:12;;;;;;;37.78;20.75;;;1.10;1.00;;;;;;6168132;23;20171;-89
2022/11/18 04:16:45;;;;;;;28.42;17.38;;;1.10;99.90;;;;;;6161900;23;20484;-88
2022/11/18 04:19:18;;;;;;;29.55;18.23;;;1.10;99.90;;;;;;6165650;23;20182;-88
2022/11/18 04:21:50;;;;;;;29.77;19.10;;;1.20;1.00;;;;;;6161166;23;20286;-88
2022/11/18 04:24:21;;;;;;;28.05;18.48;;;1.10;1.00;;;;;;6161534;23;20232;-88
2022/11/18 04:26:48;;;;;;;32.60;20.00;;;1.10;1.00;;;;;;6161067;23;20165;-88
2022/11/18 04:29:14;;;;;;;32.45;20.67;;;1.00;1.00;;;;;;6162590;23;20255;-89
2022/11/18 04:31:41;;;;;;;29.55;18.67;;;1.20;99.90;;;;;;6163592;23;20227;-89
2022/11/18 04:34:08;;;;;;;31.30;19.17;;;1.00;23.10;;;;;;6164801;23;20176;-88
2022/11/18 04:36:36;;;;;;;36.20;21.67;;;0.70;85.70;;;;;;6165390;23;20211;-88
2022/11/18 04:39:03;;;;;;;34.47;20.13;;;0.60;99.90;;;;;;6176284;23;20232;-87
2022/11/18 04:44:22;;;;;;;32.97;19.92;;;0.90;1.00;;;;;;6165230;23;20243;-89
2022/11/18 04:46:53;;;;;;;38.20;20.60;;;1.00;99.90;;;;;;6165054;23;20248;-88
2022/11/18 04:49:26;;;;;;;37.78;21.27;;;0.90;2.80;;;;;;6166708;23;20169;-88
2022/11/18 04:52:01;;;;;;;33.85;19.65;;;1.00;90.50;;;;;;6166752;23;20735;-88
2022/11/18 04:54:33;;;;;;;31.23;18.75;;;1.00;98.90;;;;;;6166647;23;20195;-89
2022/11/18 04:57:04;;;;;;;37.20;19.73;;;0.90;99.90;;;;;;6166673;23;20165;-88
2022/11/18 04:59:40;;;;;;;42.83;22.08;;;0.90;99.90;;;;;;6166183;23;20168;-87
2022/11/18 05:03:00;;;;;;;37.15;21.48;;;;;;;;;;6165162;23;20211;-87
2022/11/18 05:05:47;;;;;;;38.30;20.88;;;;;;;;;;6127550;23;20211;-87
2022/11/18 05:08:52;;;;;;;39.10;22.20;;;;;;;;;;6181933;23;20204;-86
2022/11/18 06:00:19;;;;;;;48.53;25.42;;;;;;;;;;6018773;23;20185;-85
2022/11/18 07:00:17;;;;;;;30.55;16.88;;;0.50;1.00;;;;;;5931464;24;20216;-85
2022/11/18 08:00:59;;;;;;;31.27;15.10;;;;;;;;;;6026052;23;20199;-87
2022/11/18 08:03:36;;;;;;;26.25;15.95;;;0.40;99.90;;;;;;6024389;23;20229;-85
2022/11/18 08:06:09;;;;;;;26.92;17.70;;;0.50;1.00;;;;;;6043753;23;20185;-85
2022/11/18 08:08:41;;;;;;;27.38;17.70;;;0.50;99.90;;;;;;6131829;23;20218;-86
2022/11/18 08:11:15;;;;;;;24.27;16.75;;;0.50;1.00;;;;;;6136095;23;20602;-87
2022/11/18 08:13:52;;;;;;;27.50;17.85;;;0.40;1.00;;;;;;6133702;23;20175;-86
2022/11/18 08:16:29;;;;;;;27.85;17.25;;;0.40;1.00;;;;;;6134149;23;20176;-85
2022/11/18 08:48:26;;;;;;;23.70;15.43;;;;;;;;;;5859209;24;20538;-87
2022/11/18 08:50:54;;;;;;;25.30;16.13;;;;;;;;;;5868233;24;20159;-88
2022/11/18 09:10:14;;;;;;;23.42;15.82;;;;;;;;;;5967108;23;20278;-86
2022/11/18 10:06:34;;;;;;;17.35;11.65;;;;;;;;;;6164110;23;20180;-86
2022/11/18 10:09:55;;;;;;;;;;;;;;;;;;;;;
2022/11/18 10:12:48;;;;;;;16.90;11.52;;;0.40;99.90;;;;;;6156007;23;20574;-86
2022/11/18 10:15:25;;;;;;;13.88;10.32;;;;;;;;;;6166033;23;20219;-87
2022/11/18 10:37:37;;;;;;;14.15;9.70;;;0.40;99.90;;;;;;6079915;23;20181;-87
2022/11/18 10:40:30;;;;;;;12.35;8.90;;;;;;;;;;6168319;23;20202;-87
2022/11/18 10:43:13;;;;;;;10.82;8.73;;;;;;;;;;6167934;23;20199;-86
2022/11/18 10:48:51;;;;;;;14.77;8.60;;;;;;;;;;6162379;23;20176;-84
2022/11/18 10:51:39;;;;;;;10.48;8.93;;;;;;;;;;6167030;23;20211;-86
2022/11/18 10:54:33;;;;;;;14.07;10.60;;;;;;;;;;6163157;23;20167;-85
2022/11/18 10:57:43;;;;;;;;;;;;;;;;;;;;;
2022/11/18 11:00:50;;;;;;;12.93;8.95;;;0.60;99.90;;;;;;6166379;23;20171;-85
2022/11/18 11:03:27;;;;;;;10.52;8.18;;;0.60;63.40;;;;;;6151906;23;20269;-86
2022/11/18 11:06:33;;;;;;;11.55;9.00;;;0.40;99.90;;;;;;6164554;23;20163;-86
2022/11/18 11:09:07;;;;;;;10.95;7.90;;;0.40;99.90;;;;;;6164959;23;20247;-85
2022/11/18 11:11:42;;;;;;;11.43;8.73;;;0.40;99.90;;;;;;6165973;23;20250;-85
2022/11/18 11:14:21;;;;;;;10.23;8.10;;;0.40;99.90;;;;;;6198474;23;20195;-84
2022/11/18 11:16:56;;;;;;;15.20;9.10;;;0.40;99.90;;;;;;6213498;23;20149;-84
2022/11/18 11:19:27;;;;;;;12.13;9.00;;;0.50;99.90;;;;;;6211883;23;20150;-87
2022/11/18 11:21:55;;;;;;;11.55;8.38;;;;;;;;;;6209512;23;20159;-86
2022/11/18 11:24:27;;;;;;;10.20;8.18;;;0.50;99.90;;;;;;6207609;23;20206;-87
2022/11/18 11:27:12;;;;;;;16.13;9.50;;;0.60;99.90;;;;;;6200638;23;20584;-86
2022/11/18 11:30:13;;;;;;;13.32;9.90;;;0.30;1.00;;;;;;6199307;23;20194;-86
2022/11/18 11:33:14;;;;;;;11.40;9.48;;;0.50;99.90;;;;;;6177268;23;20199;-88
2022/11/18 11:35:50;;;;;;;11.23;9.00;;;0.60;1.00;;;;;;6201591;23;20191;-86
2022/11/18 11:38:32;;;;;;;16.65;10.50;;;0.60;1.00;;;;;;6204476;23;20167;-86
2022/11/18 11:41:06;;;;;;;10.73;9.45;;;0.70;99.90;;;;;;6199737;23;20170;-87
2022/11/18 11:43:50;;;;;;;12.98;9.57;;;0.40;1.00;;;;;;6198393;23;20566;-87
2022/11/18 11:46:28;;;;;;;12.60;10.82;;;0.70;99.90;;;;;;6198194;23;20160;-86
2022/11/18 11:49:13;;;;;;;13.48;8.20;;;1.00;1.00;;;;;;6199503;23;20171;-87
2022/11/18 11:51:52;;;;;;;10.88;7.85;;;0.80;1.00;;;;;;6203830;23;20186;-86
2022/11/18 11:54:44;;;;;;;12.43;9.40;;;0.80;99.90;;;;;;6207782;23;20190;-85
2022/11/18 11:57:17;;;;;;;12.98;9.63;;;0.70;1.00;;;;;;6206066;23;20174;-86
2022/11/18 11:59:54;;;;;;;15.35;9.90;;;0.70;99.90;;;;;;6205470;23;20167;-86
2022/11/18 12:02:39;;;;;;;11.93;7.90;;;0.80;75.20;;;;;;6203698;23;20167;-86
2022/11/18 12:05:17;;;;;;;14.88;8.10;;;0.80;67.60;;;;;;6203810;23;20195;-86
2022/11/18 12:07:49;;;;;;;15.07;9.57;;;0.80;1.00;;;;;;6207362;23;20177;-84
2022/11/18 12:10:28;;;;;;;19.35;9.55;;;0.80;1.00;;;;;;6208432;23;20158;-86
2022/11/18 12:13:07;;;;;;;15.75;9.70;;;0.90;99.90;;;;;;6203023;23;20211;-87
2022/11/18 12:15:55;;;;;;;13.35;9.48;;;0.90;99.90;;;;;;6204075;23;20172;-85
2022/11/18 12:18:26;;;;;;;16.52;8.63;;;0.80;55.90;;;;;;6209595;23;20174;-86
2022/11/18 12:20:54;;;;;;;14.77;9.63;;;0.80;57.90;;;;;;6204888;23;20167;-84
2022/11/18 12:23:22;;;;;;;11.15;8.50;;;0.90;43.40;;;;;;6198432;23;20209;-84
2022/11/18 12:26:04;;;;;;;15.05;8.25;;;0.80;19.40;;;;;;6197333;23;20207;-84
2022/11/18 12:28:39;;;;;;;12.05;9.32;;;0.90;10.00;;;;;;6199411;23;20195;-83
2022/11/18 12:31:35;;;;;;;11.77;8.38;;;1.00;1.00;;;;;;6199391;23;20164;-85
2022/11/18 12:34:06;;;;;;;12.18;7.90;;;1.20;1.00;;;;;;6130187;23;20230;-84
2022/11/18 12:36:35;;;;;;;8.32;6.68;;;1.00;1.00;;;;;;6199107;23;20677;-85
2022/11/18 12:39:50;;;;;;;9.30;7.82;;;0.80;1.00;;;;;;6199745;23;20206;-85
2022/11/18 12:45:58;;;;;;;11.52;7.65;;;1.00;1.00;;;;;;6078507;23;20211;-85
2022/11/18 12:48:31;;;;;;;9.00;8.10;;;;;;;;;;6079798;23;20181;-86
2022/11/18 12:50:59;;;;;;;8.65;6.65;;;1.00;1.00;;;;;;6170577;23;20175;-86
2022/11/18 12:53:33;;;;;;;8.43;7.53;;;1.00;1.00;;;;;;6198208;23;20262;-86
2022/11/18 12:56:02;;;;;;;8.40;6.70;;;;;;;;;;6198390;23;20194;-86
2022/11/18 12:58:30;;;;;;;8.60;6.30;;;;;;;;;;6201793;23;20176;-84
2022/11/18 13:01:07;;;;;;;11.07;8.10;;;0.30;1.00;;;;;;6200338;23;20269;-85
2022/11/18 13:03:36;;;;;;;9.23;8.30;;;0.70;1.00;;;;;;6202326;23;20237;-85
2022/11/18 13:06:13;;;;;;;10.43;6.45;;;0.30;99.90;;;;;;6200020;23;20203;-84
2022/11/18 13:08:41;;;;;;;11.57;7.80;;;0.50;1.00;;;;;;6199177;23;20195;-85
2022/11/18 13:19:30;;;;;;;11.30;7.57;;;0.50;1.00;;;;;;6199032;23;20178;-84
2022/11/18 13:24:45;;;;;;;8.10;7.22;;;0.50;1.00;;;;;;6198744;23;20163;-85
2022/11/18 13:27:24;;;;;;;8.05;6.50;;;0.50;1.00;;;;;;6203550;23;20213;-83
2022/11/18 13:29:54;;;;;;;10.35;7.30;;;0.60;1.00;;;;;;6209593;23;20173;-85
2022/11/18 13:32:23;;;;;;;8.25;6.40;;;0.50;99.90;;;;;;6207883;23;20173;-83
2022/11/18 13:34:53;;;;;;;11.98;6.75;;;0.70;1.00;;;;;;6213101;23;20193;-84
2022/11/18 13:37:22;;;;;;;12.40;6.22;;;0.60;1.00;;;;;;6210014;23;20186;-84
2022/11/18 13:39:50;;;;;;;9.95;6.32;;;0.80;99.90;;;;;;6202975;23;20242;-84
2022/11/18 13:42:21;;;;;;;8.75;5.65;;;0.40;99.90;;;;;;6206350;23;20191;-85
2022/11/18 13:44:53;;;;;;;7.65;5.88;;;0.20;1.00;;;;;;6205137;23;20190;-85
2022/11/18 13:47:27;;;;;;;8.75;6.70;;;0.90;1.00;;;;;;6200707;23;20620;-85
2022/11/18 13:50:15;;;;;;;11.23;7.82;;;0.80;1.00;;;;;;6200335;23;20190;-85
2022/11/18 13:52:45;;;;;;;9.48;6.65;;;0.70;99.90;;;;;;6200654;23;20506;-85
2022/11/18 13:55:18;;;;;;;11.75;9.07;;;0.80;1.00;;;;;;6199081;23;20163;-85
2022/11/18 13:57:49;;;;;;;10.48;7.53;;;0.70;1.00;;;;;;6197761;23;20174;-85
2022/11/18 14:00:22;;;;;;;8.73;6.25;;;1.00;1.00;;;;;;6196955;23;20183;-85
2022/11/18 14:02:55;;;;;;;13.18;7.90;;;0.80;1.00;;;;;;6197587;23;20237;-84
2022/11/18 14:05:24;;;;;;;11.20;7.13;;;;;;;;;;6197517;23;20242;-85
2022/11/18 14:08:04;;;;;;;9.57;6.82;;;0.70;99.90;;;;;;6198077;23;20187;-85
2022/11/18 14:10:40;;;;;;;7.85;6.18;;;0.70;1.00;;;;;;6199986;23;20516;-84
2022/11/18 14:13:18;;;;;;;7.45;5.78;;;0.50;1.00;;;;;;6198230;23;20283;-84
2022/11/18 14:15:45;;;;;;;9.32;6.60;;;0.60;1.00;;;;;;6198458;23;20163;-85
2022/11/18 14:18:20;;;;;;;10.15;7.13;;;0.10;1.00;;;;;;6200262;23;20181;-85
2022/11/18 14:20:53;;;;;;;7.70;6.90;;;0.70;1.00;;;;;;6214162;23;20214;-85
2022/11/18 14:23:27;;;;;;;8.48;6.70;;;0.60;1.00;;;;;;6205567;23;20200;-85
2022/11/18 14:25:54;;;;;;;8.00;5.47;;;0.80;99.90;;;;;;6207435;23;20177;-84
2022/11/18 14:28:25;;;;;;;7.68;5.70;;;0.60;1.00;;;;;;6205935;23;20210;-85
2022/11/18 14:31:03;;;;;;;7.35;6.47;;;0.60;1.00;;;;;;6198561;23;20471;-86
2022/11/18 14:33:35;;;;;;;6.93;6.20;;;0.50;1.00;;;;;;6197699;23;20257;-86
2022/11/18 14:36:10;;;;;;;9.93;7.60;;;0.50;1.00;;;;;;6197712;23;20165;-85
2022/11/18 14:38:43;;;;;;;10.23;6.90;;;0.60;1.00;;;;;;6199065;23;20249;-85
2022/11/18 14:41:11;;;;;;;9.40;5.95;;;0.60;1.00;;;;;;6198106;23;20198;-84
2022/11/18 14:43:38;;;;;;;10.25;7.65;;;0.50;1.00;;;;;;6197549;23;20201;-85
2022/11/18 14:46:08;;;;;;;10.50;7.90;;;0.50;1.00;;;;;;6198666;23;20274;-85
2022/11/18 14:48:36;;;;;;;6.03;5.05;;;;;;;;;;6197581;23;20167;-85
2022/11/18 14:51:04;;;;;;;6.60;5.50;;;0.40;99.90;;;;;;6197301;23;20183;-86
2022/11/18 14:53:31;;;;;;;6.32;5.00;;;0.30;99.90;;;;;;6197819;23;20575;-83
2022/11/18 14:56:00;;;;;;;5.32;4.93;;;0.50;1.00;;;;;;6195698;23;20182;-84
2022/11/18 14:58:27;;;;;;;5.95;5.05;;;0.40;1.00;;;;;;6197175;23;20197;-85
2022/11/18 15:00:54;;;;;;;4.97;4.47;;;0.40;1.00;;;;;;6198234;23;20258;-83
2022/11/18 15:03:21;;;;;;;5.22;4.47;;;0.50;1.00;;;;;;6197067;23;20202;-87
2022/11/18 15:05:48;;;;;;;4.50;4.03;;;0.70;99.90;;;;;;6197460;23;20261;-85
2022/11/18 15:08:16;;;;;;;4.57;4.15;;;0.40;1.00;;;;;;6198355;23;20213;-84
2022/11/18 15:10:43;;;;;;;4.88;4.07;;;0.40;99.90;;;;;;6201885;23;20261;-85
2022/11/18 15:13:10;;;;;;;11.27;5.47;;;0.30;1.00;;;;;;6200059;23;20209;-83
2022/11/18 15:15:36;;;;;;;6.30;4.65;;;0.70;99.90;;;;;;6199269;23;20163;-85
2022/11/18 15:18:03;;;;;;;6.22;4.70;;;0.40;1.00;;;;;;6199557;23;20230;-86
2022/11/18 15:20:30;;;;;;;4.95;4.13;;;0.20;1.00;;;;;;6199501;23;20213;-84
2022/11/18 15:22:58;;;;;;;6.20;5.20;;;;;;;;;;6202302;23;20212;-85
2022/11/18 15:25:26;;;;;;;4.50;4.10;;;;;;;;;;6209586;23;20190;-83
2022/11/18 15:27:53;;;;;;;5.32;4.82;;;0.30;1.00;;;;;;6209265;23;20229;-83
2022/11/18 15:30:20;;;;;;;6.30;5.68;;;0.10;99.90;;;;;;6212463;23;20178;-85
2022/11/18 15:32:47;;;;;;;7.07;5.00;;;-0.10;99.90;;;;;;6213677;23;20186;-82
2022/11/18 15:35:14;;;;;;;7.70;5.97;;;0.20;1.00;;;;;;6213879;23;20166;-83
2022/11/18 15:37:41;;;;;;;6.43;5.13;;;0.00;99.90;;;;;;6206805;23;20399;-85
2022/11/18 15:40:08;;;;;;;8.95;6.57;;;-0.10;99.90;;;;;;6202330;23;20414;-84
2022/11/18 15:42:37;;;;;;;8.43;5.82;;;0.20;1.00;;;;;;6198927;23;20202;-85
2022/11/18 15:45:04;;;;;;;6.55;5.00;;;;;;;;;;6196752;23;20490;-84
2022/11/18 15:47:31;;;;;;;5.85;5.10;;;-0.20;99.90;;;;;;6197173;23;20238;-84
2022/11/18 15:49:58;;;;;;;8.48;6.13;;;0.20;99.90;;;;;;6196317;23;20217;-85
2022/11/18 15:52:26;;;;;;;8.02;5.57;;;0.10;99.90;;;;;;6200798;23;20206;-82
2022/11/18 15:54:52;;;;;;;7.35;5.45;;;0.40;1.00;;;;;;6210300;23;20240;-83
2022/11/18 15:57:19;;;;;;;8.15;5.57;;;-0.20;1.00;;;;;;6209482;23;20257;-84
2022/11/18 15:59:48;;;;;;;6.85;6.03;;;0.00;1.00;;;;;;6208364;23;20193;-85
2022/11/18 16:02:15;;;;;;;10.82;8.05;;;-0.30;99.90;;;;;;6198175;23;20176;-85
2022/11/18 16:04:42;;;;;;;11.10;6.22;;;-0.30;1.00;;;;;;6198865;23;20212;-86
2022/11/18 16:07:09;;;;;;;8.45;5.75;;;;;;;;;;6200948;23;20282;-86
2022/11/18 16:17:51;;;;;;;9.80;6.00;;;-0.20;1.00;;;;;;6198664;23;20242;-86
2022/11/18 16:20:18;;;;;;;9.05;6.18;;;-0.20;1.00;;;;;;6205654;23;20524;-84
2022/11/18 16:22:45;;;;;;;8.52;5.75;;;-0.40;1.00;;;;;;6205920;23;20201;-85
2022/11/18 16:25:13;;;;;;;8.23;5.80;;;-0.20;1.00;;;;;;6181177;23;20265;-86
2022/11/18 16:27:42;;;;;;;11.27;5.88;;;-0.40;99.90;;;;;;6171473;23;20417;-84
2022/11/18 16:31:38;;;;;;;6.57;5.57;;;-0.20;1.00;;;;;;6171188;23;20265;-84
2022/11/18 16:33:01;;;;;;;6.72;5.82;;;-0.20;1.00;;;;;;6168779;23;20262;-85
2022/11/18 16:35:28;;;;;;;7.13;6.43;;;0.30;1.00;;;;;;6176863;23;20239;-85
2022/11/18 16:37:58;;;;;;;8.55;6.25;;;-0.30;99.90;;;;;;6174294;23;20182;-85
2022/11/18 16:40:24;;;;;;;6.80;6.10;;;-0.30;1.00;;;;;;6171545;23;20213;-84
2022/11/18 16:42:51;;;;;;;8.10;6.00;;;-0.10;1.00;;;;;;6171726;23;20202;-84
2022/11/18 16:45:20;;;;;;;6.28;5.68;;;-0.10;1.00;;;;;;6168905;23;20215;-85
2022/11/18 16:47:46;;;;;;;7.60;5.68;;;0.00;99.90;;;;;;6167977;23;20198;-85
2022/11/18 16:50:13;;;;;;;7.85;5.75;;;-0.10;1.00;;;;;;6167546;23;20257;-85
2022/11/18 16:52:40;;;;;;;7.07;6.25;;;-0.20;1.00;;;;;;6167813;23;20201;-85
2022/11/18 16:55:07;;;;;;;8.35;5.47;;;-0.40;1.00;;;;;;6168458;23;20233;-87
2022/11/18 16:57:34;;;;;;;11.15;5.60;;;-0.30;1.00;;;;;;6164578;23;20180;-85
2022/11/18 17:00:01;;;;;;;6.53;5.80;;;-0.40;44.10;;;;;;6162645;23;20202;-85
2022/11/18 17:02:29;;;;;;;19.92;11.43;;;-0.30;1.00;;;;;;6164775;23;20220;-86
2022/11/18 17:04:56;;;;;;;12.48;7.65;;;-0.30;1.00;;;;;;6165130;23;20573;-85
2022/11/18 17:07:23;;;;;;;10.07;6.07;;;-0.30;1.30;;;;;;6167265;23;20733;-86
2022/11/18 17:09:50;;;;;;;5.95;5.32;;;-0.20;1.00;;;;;;6167631;23;20255;-85
2022/11/18 17:12:17;;;;;;;9.02;5.53;;;-0.40;1.00;;;;;;6176304;23;20209;-84
2022/11/18 17:14:44;;;;;;;6.75;5.40;;;;;;;;;;6168714;23;20232;-85
2022/11/18 17:17:12;;;;;;;8.48;5.65;;;;;;;;;;6180059;23;20161;-85
2022/11/18 17:19:42;;;;;;;7.40;5.70;;;;;;;;;;6179689;23;20180;-85
2022/11/18 17:22:12;;;;;;;7.30;6.03;;;;;;;;;;6168563;23;20165;-86
2022/11/18 17:24:40;;;;;;;8.07;6.45;;;;;;;;;;6164958;23;20205;-86
2022/11/18 17:27:07;;;;;;;6.28;5.40;;;;;;;;;;6166418;23;20516;-86
2022/11/18 17:29:35;;;;;;;7.35;6.63;;;;;;;;;;6167473;23;20240;-86
2022/11/18 17:32:01;;;;;;;8.20;5.85;;;-0.40;1.00;;;;;;6164593;23;20204;-85
2022/11/18 17:34:29;;;;;;;9.43;6.43;;;-0.60;1.00;;;;;;6164501;23;20206;-86
2022/11/18 17:36:57;;;;;;;6.65;5.75;;;-0.80;1.00;;;;;;6165869;23;20293;-86
2022/11/18 17:39:25;;;;;;;11.20;7.70;;;;;;;;;;6164336;23;20411;-86
2022/11/18 17:44:36;;;;;;;10.32;7.55;;;-0.40;1.00;;;;;;6163814;23;20198;-85
2022/11/18 17:47:04;;;;;;;9.68;7.82;;;-0.60;99.90;;;;;;6164959;23;20558;-86
2022/11/18 17:49:31;;;;;;;11.82;8.07;;;-0.40;99.90;;;;;;6164427;23;20183;-86
2022/11/18 17:51:59;;;;;;;8.77;7.25;;;-0.40;1.00;;;;;;6164916;23;20203;-86
2022/11/18 17:54:26;;;;;;;8.18;6.38;;;-0.60;1.00;;;;;;6163886;23;20282;-86
2022/11/18 17:56:53;;;;;;;12.27;7.32;;;-0.70;1.00;;;;;;6164927;23;20206;-86
2022/11/18 17:59:24;;;;;;;12.38;7.93;;;-0.40;1.00;;;;;;6165316;23;20201;-86
2022/11/18 18:01:51;;;;;;;9.00;7.68;;;-0.20;1.00;;;;;;6166418;23;20179;-86
2022/11/18 18:04:20;;;;;;;10.77;7.07;;;-0.30;1.00;;;;;;6167645;23;20570;-87
2022/11/18 18:06:49;;;;;;;9.38;6.93;;;0.30;1.00;;;;;;6168511;23;20222;-86
2022/11/18 18:09:18;;;;;;;6.50;5.80;;;-0.50;1.00;;;;;;6164804;23;20185;-86
2022/11/18 18:11:47;;;;;;;10.98;7.43;;;-0.90;1.00;;;;;;6165476;23;20475;-86
2022/11/18 18:14:13;;;;;;;8.02;7.22;;;-0.70;99.90;;;;;;6162491;23;20227;-86
2022/11/18 18:16:44;;;;;;;9.00;6.38;;;-0.80;1.00;;;;;;6164709;23;20260;-86
2022/11/18 18:19:16;;;;;;;9.20;7.20;;;-0.50;99.90;;;;;;6166694;23;20194;-86
2022/11/18 18:21:43;;;;;;;11.02;7.28;;;;;;;;;;6168412;23;20181;-85
2022/11/18 18:24:25;;;;;;;9.90;7.45;;;;;;;;;;6168335;23;20210;-86
2022/11/18 18:30:12;;;;;;;15.38;12.25;;;-0.40;76.40;;;;;;6165626;23;20185;-86
2022/11/18 18:35:36;;;;;;;10.90;7.47;;;;;;;;;;6165046;23;20234;-86
2022/11/18 18:38:17;;;;;;;17.90;8.05;;;;;;;;;;6169020;23;20194;-86
2022/11/18 18:40:44;;;;;;;7.80;7.03;;;;;;;;;;6178615;23;20230;-87
2022/11/18 18:43:58;;;;;;;9.60;8.20;;;-0.60;99.90;;;;;;6183511;23;20209;-86
2022/11/18 18:46:32;;;;;;;9.77;7.95;;;;;;;;;;6183762;23;20160;-86
2022/11/18 18:49:35;;;;;;;11.65;8.75;;;-0.60;99.90;;;;;;6182806;23;20163;-86
2022/11/18 18:55:32;;;;;;;19.98;8.07;;;;;;;;;;6002911;23;20235;-86
2022/11/18 19:03:39;;;;;;;9.90;7.60;;;;;;;;;;6171103;23;20214;-86
2022/11/18 19:06:56;;;;;;;;;;;;;;;;;;;;;
2022/11/18 19:16:13;;;;;;;11.70;8.50;;;-0.70;99.90;;;;;;6111106;23;20198;-86
2022/11/18 19:19:01;;;;;;;11.57;7.10;;;;;;;;;;6107446;23;20180;-86
2022/11/18 19:22:19;;;;;;;10.30;6.88;;;-0.70;99.90;;;;;;6108685;23;20168;-87
2022/11/18 19:27:39;;;;;;;10.45;7.50;;;;;;;;;;6138005;23;20672;-86